sensor_id;sensor_type;location;lat;lon;timestamp;P1;durP1;ratioP1;P2;durP2;ratioP2
14377;SDS011;7272;53.668;9.578;2023-12-20T00:02:23;9.90;;;3.10;;
14377;SDS011;7272;53.668;9.578;2023-12-20T00:05:24;7.10;;;1.97;;
14377;SDS011;7272;53.668;9.578;2023-12-20T00:08:26;6.63;;;2.20;;
14377;SDS011;7272;53.668;9.578;2023-12-20T00:11:27;4.57;;;1.93;;
14377;SDS011;7272;53.668;9.578;2023-12-20T00:14:28;4.33;;;2.07;;
14377;SDS011;7272;53.668;9.578;2023-12-20T00:17:29;7.67;;;2.20;;
14377;SDS011;7272;53.668;9.578;2023-12-20T00:20:30;6.77;;;2.30;;
14377;SDS011;7272;53.668;9.578;2023-12-20T00:23:32;3.53;;;2.13;;
14377;SDS011;7272;53.668;9.578;2023-12-20T00:26:33;7.17;;;2.20;;
14377;SDS011;7272;53.668;9.578;2023-12-20T00:29:35;4.87;;;2.17;;
14377;SDS011;7272;53.668;9.578;2023-12-20T00:32:36;7.00;;;2.33;;
14377;SDS011;7272;53.668;9.578;2023-12-20T00:35:37;9.10;;;2.47;;
14377;SDS011;7272;53.668;9.578;2023-12-20T00:38:39;8.80;;;2.37;;
14377;SDS011;7272;53.668;9.578;2023-12-20T00:41:40;6.00;;;1.93;;
14377;SDS011;7272;53.668;9.578;2023-12-20T00:44:41;5.33;;;1.83;;
14377;SDS011;7272;53.668;9.578;2023-12-20T00:47:42;5.30;;;2.03;;
14377;SDS011;7272;53.668;9.578;2023-12-20T00:50:44;5.77;;;1.80;;
14377;SDS011;7272;53.668;9.578;2023-12-20T00:53:45;7.93;;;2.70;;
14377;SDS011;7272;53.668;9.578;2023-12-20T00:56:49;5.97;;;2.03;;
14377;SDS011;7272;53.668;9.578;2023-12-20T00:59:50;5.80;;;1.80;;
14377;SDS011;7272;53.668;9.578;2023-12-20T01:02:51;7.70;;;2.00;;
14377;SDS011;7272;53.668;9.578;2023-12-20T01:05:53;6.67;;;2.13;;
14377;SDS011;7272;53.668;9.578;2023-12-20T01:08:54;11.43;;;2.43;;
14377;SDS011;7272;53.668;9.578;2023-12-20T01:11:56;7.90;;;2.60;;
14377;SDS011;7272;53.668;9.578;2023-12-20T01:14:57;7.00;;;1.90;;
14377;SDS011;7272;53.668;9.578;2023-12-20T01:17:58;7.60;;;2.27;;
14377;SDS011;7272;53.668;9.578;2023-12-20T01:21:01;3.20;;;1.53;;
14377;SDS011;7272;53.668;9.578;2023-12-20T01:24:03;7.20;;;2.10;;
14377;SDS011;7272;53.668;9.578;2023-12-20T01:27:05;5.53;;;1.90;;
14377;SDS011;7272;53.668;9.578;2023-12-20T01:30:06;8.57;;;2.40;;
14377;SDS011;7272;53.668;9.578;2023-12-20T01:33:08;5.80;;;2.10;;
14377;SDS011;7272;53.668;9.578;2023-12-20T01:36:09;4.47;;;1.83;;
14377;SDS011;7272;53.668;9.578;2023-12-20T01:39:12;8.57;;;2.53;;
14377;SDS011;7272;53.668;9.578;2023-12-20T01:42:14;8.73;;;2.20;;
14377;SDS011;7272;53.668;9.578;2023-12-20T01:45:15;7.80;;;2.43;;
14377;SDS011;7272;53.668;9.578;2023-12-20T01:48:16;6.07;;;1.90;;
14377;SDS011;7272;53.668;9.578;2023-12-20T01:51:17;5.37;;;2.20;;
14377;SDS011;7272;53.668;9.578;2023-12-20T01:54:20;4.67;;;2.10;;
14377;SDS011;7272;53.668;9.578;2023-12-20T01:57:22;4.10;;;2.07;;
14377;SDS011;7272;53.668;9.578;2023-12-20T02:00:23;7.77;;;2.60;;
14377;SDS011;7272;53.668;9.578;2023-12-20T02:03:27;6.17;;;1.83;;
14377;SDS011;7272;53.668;9.578;2023-12-20T02:06:29;6.70;;;2.53;;
14377;SDS011;7272;53.668;9.578;2023-12-20T02:09:31;13.40;;;5.03;;
14377;SDS011;7272;53.668;9.578;2023-12-20T02:12:33;9.40;;;2.63;;
14377;SDS011;7272;53.668;9.578;2023-12-20T02:15:34;6.07;;;1.80;;
14377;SDS011;7272;53.668;9.578;2023-12-20T02:18:37;8.63;;;2.40;;
14377;SDS011;7272;53.668;9.578;2023-12-20T02:21:38;4.30;;;2.00;;
14377;SDS011;7272;53.668;9.578;2023-12-20T02:24:40;11.03;;;2.80;;
14377;SDS011;7272;53.668;9.578;2023-12-20T02:27:41;6.03;;;2.10;;
14377;SDS011;7272;53.668;9.578;2023-12-20T02:30:43;5.57;;;3.03;;
14377;SDS011;7272;53.668;9.578;2023-12-20T02:33:44;8.63;;;2.23;;
14377;SDS011;7272;53.668;9.578;2023-12-20T02:36:46;5.20;;;2.30;;
14377;SDS011;7272;53.668;9.578;2023-12-20T02:39:47;5.80;;;2.43;;
14377;SDS011;7272;53.668;9.578;2023-12-20T02:42:49;4.47;;;2.63;;
14377;SDS011;7272;53.668;9.578;2023-12-20T02:45:50;4.03;;;2.13;;
14377;SDS011;7272;53.668;9.578;2023-12-20T02:48:51;2.70;;;1.83;;
14377;SDS011;7272;53.668;9.578;2023-12-20T02:51:53;7.23;;;2.50;;
14377;SDS011;7272;53.668;9.578;2023-12-20T02:54:54;7.77;;;2.47;;
14377;SDS011;7272;53.668;9.578;2023-12-20T02:57:55;9.10;;;2.17;;
14377;SDS011;7272;53.668;9.578;2023-12-20T03:00:56;5.33;;;2.30;;
14377;SDS011;7272;53.668;9.578;2023-12-20T03:03:57;5.20;;;2.20;;
14377;SDS011;7272;53.668;9.578;2023-12-20T03:06:59;4.77;;;1.90;;
14377;SDS011;7272;53.668;9.578;2023-12-20T03:10:00;5.33;;;1.90;;
14377;SDS011;7272;53.668;9.578;2023-12-20T03:13:02;6.33;;;2.20;;
14377;SDS011;7272;53.668;9.578;2023-12-20T03:16:07;9.70;;;2.93;;
14377;SDS011;7272;53.668;9.578;2023-12-20T03:19:09;7.27;;;2.13;;
14377;SDS011;7272;53.668;9.578;2023-12-20T03:22:11;7.03;;;2.47;;
14377;SDS011;7272;53.668;9.578;2023-12-20T03:25:12;5.93;;;1.87;;
14377;SDS011;7272;53.668;9.578;2023-12-20T03:28:14;7.13;;;2.33;;
14377;SDS011;7272;53.668;9.578;2023-12-20T03:31:16;3.47;;;1.80;;
14377;SDS011;7272;53.668;9.578;2023-12-20T03:34:17;4.37;;;1.93;;
14377;SDS011;7272;53.668;9.578;2023-12-20T03:37:19;6.27;;;2.00;;
14377;SDS011;7272;53.668;9.578;2023-12-20T03:40:20;9.77;;;1.80;;
14377;SDS011;7272;53.668;9.578;2023-12-20T03:43:22;6.77;;;2.37;;
14377;SDS011;7272;53.668;9.578;2023-12-20T03:46:23;5.70;;;2.10;;
14377;SDS011;7272;53.668;9.578;2023-12-20T03:49:24;5.40;;;2.50;;
14377;SDS011;7272;53.668;9.578;2023-12-20T03:52:26;7.17;;;2.37;;
14377;SDS011;7272;53.668;9.578;2023-12-20T03:55:27;5.03;;;2.20;;
14377;SDS011;7272;53.668;9.578;2023-12-20T03:58:29;4.67;;;2.47;;
14377;SDS011;7272;53.668;9.578;2023-12-20T04:01:30;6.47;;;2.13;;
14377;SDS011;7272;53.668;9.578;2023-12-20T04:04:31;6.20;;;2.40;;
14377;SDS011;7272;53.668;9.578;2023-12-20T04:07:33;4.80;;;1.87;;
14377;SDS011;7272;53.668;9.578;2023-12-20T04:10:34;2.80;;;1.77;;
14377;SDS011;7272;53.668;9.578;2023-12-20T04:13:35;4.33;;;1.87;;
14377;SDS011;7272;53.668;9.578;2023-12-20T04:16:37;5.27;;;2.27;;
14377;SDS011;7272;53.668;9.578;2023-12-20T04:19:39;3.53;;;2.03;;
14377;SDS011;7272;53.668;9.578;2023-12-20T04:22:41;6.77;;;2.30;;
14377;SDS011;7272;53.668;9.578;2023-12-20T04:25:42;10.33;;;2.60;;
14377;SDS011;7272;53.668;9.578;2023-12-20T04:28:44;7.70;;;2.60;;
14377;SDS011;7272;53.668;9.578;2023-12-20T04:31:45;3.57;;;2.33;;
14377;SDS011;7272;53.668;9.578;2023-12-20T04:34:46;8.00;;;2.40;;
14377;SDS011;7272;53.668;9.578;2023-12-20T04:37:48;8.57;;;2.83;;
14377;SDS011;7272;53.668;9.578;2023-12-20T04:40:50;5.63;;;2.47;;
14377;SDS011;7272;53.668;9.578;2023-12-20T04:43:51;6.47;;;2.30;;
14377;SDS011;7272;53.668;9.578;2023-12-20T04:46:52;9.70;;;2.00;;
14377;SDS011;7272;53.668;9.578;2023-12-20T04:49:53;8.80;;;2.50;;
14377;SDS011;7272;53.668;9.578;2023-12-20T04:52:55;3.97;;;1.80;;
14377;SDS011;7272;53.668;9.578;2023-12-20T04:55:56;5.93;;;2.30;;
14377;SDS011;7272;53.668;9.578;2023-12-20T04:58:58;4.87;;;2.43;;
14377;SDS011;7272;53.668;9.578;2023-12-20T05:01:59;8.13;;;2.50;;
14377;SDS011;7272;53.668;9.578;2023-12-20T05:05:00;6.40;;;2.17;;
14377;SDS011;7272;53.668;9.578;2023-12-20T05:08:02;7.17;;;2.23;;
14377;SDS011;7272;53.668;9.578;2023-12-20T05:11:04;3.43;;;2.40;;
14377;SDS011;7272;53.668;9.578;2023-12-20T05:14:05;7.30;;;2.50;;
14377;SDS011;7272;53.668;9.578;2023-12-20T05:17:07;6.57;;;2.23;;
14377;SDS011;7272;53.668;9.578;2023-12-20T05:20:08;5.00;;;2.00;;
14377;SDS011;7272;53.668;9.578;2023-12-20T05:23:11;6.80;;;2.30;;
14377;SDS011;7272;53.668;9.578;2023-12-20T05:26:13;7.23;;;2.90;;
14377;SDS011;7272;53.668;9.578;2023-12-20T05:29:14;5.70;;;2.40;;
14377;SDS011;7272;53.668;9.578;2023-12-20T05:32:16;6.03;;;2.23;;
14377;SDS011;7272;53.668;9.578;2023-12-20T05:35:17;4.40;;;2.47;;
14377;SDS011;7272;53.668;9.578;2023-12-20T05:38:20;9.70;;;2.40;;
14377;SDS011;7272;53.668;9.578;2023-12-20T05:41:21;11.17;;;2.57;;
14377;SDS011;7272;53.668;9.578;2023-12-20T05:44:22;6.40;;;2.13;;
14377;SDS011;7272;53.668;9.578;2023-12-20T05:47:23;5.47;;;2.50;;
14377;SDS011;7272;53.668;9.578;2023-12-20T05:50:24;8.03;;;2.20;;
14377;SDS011;7272;53.668;9.578;2023-12-20T05:53:26;9.37;;;2.73;;
14377;SDS011;7272;53.668;9.578;2023-12-20T05:56:28;7.70;;;3.17;;
14377;SDS011;7272;53.668;9.578;2023-12-20T05:59:29;8.17;;;2.77;;
14377;SDS011;7272;53.668;9.578;2023-12-20T06:02:30;8.20;;;2.70;;
14377;SDS011;7272;53.668;9.578;2023-12-20T06:05:31;6.47;;;3.03;;
14377;SDS011;7272;53.668;9.578;2023-12-20T06:08:33;7.27;;;2.70;;
14377;SDS011;7272;53.668;9.578;2023-12-20T06:11:34;6.30;;;3.43;;
14377;SDS011;7272;53.668;9.578;2023-12-20T06:14:35;10.50;;;3.73;;
14377;SDS011;7272;53.668;9.578;2023-12-20T06:17:37;6.83;;;2.87;;
14377;SDS011;7272;53.668;9.578;2023-12-20T06:20:38;6.50;;;2.63;;
14377;SDS011;7272;53.668;9.578;2023-12-20T06:23:40;7.80;;;2.83;;
14377;SDS011;7272;53.668;9.578;2023-12-20T06:26:41;7.50;;;2.53;;
14377;SDS011;7272;53.668;9.578;2023-12-20T06:29:42;5.27;;;2.60;;
14377;SDS011;7272;53.668;9.578;2023-12-20T06:32:45;8.53;;;2.60;;
14377;SDS011;7272;53.668;9.578;2023-12-20T06:35:47;11.33;;;3.10;;
14377;SDS011;7272;53.668;9.578;2023-12-20T06:38:49;7.90;;;2.90;;
14377;SDS011;7272;53.668;9.578;2023-12-20T06:41:50;7.70;;;3.17;;
14377;SDS011;7272;53.668;9.578;2023-12-20T06:44:51;8.27;;;2.77;;
14377;SDS011;7272;53.668;9.578;2023-12-20T06:47:52;7.57;;;2.67;;
14377;SDS011;7272;53.668;9.578;2023-12-20T06:50:54;7.23;;;4.77;;
14377;SDS011;7272;53.668;9.578;2023-12-20T06:53:57;10.83;;;3.20;;
14377;SDS011;7272;53.668;9.578;2023-12-20T06:56:58;8.70;;;3.40;;
14377;SDS011;7272;53.668;9.578;2023-12-20T06:59:59;6.97;;;3.10;;
14377;SDS011;7272;53.668;9.578;2023-12-20T07:03:00;13.00;;;3.43;;
14377;SDS011;7272;53.668;9.578;2023-12-20T07:06:02;8.60;;;2.87;;
14377;SDS011;7272;53.668;9.578;2023-12-20T07:09:04;10.27;;;3.00;;
14377;SDS011;7272;53.668;9.578;2023-12-20T07:12:05;8.80;;;2.60;;
14377;SDS011;7272;53.668;9.578;2023-12-20T07:15:07;9.77;;;2.90;;
14377;SDS011;7272;53.668;9.578;2023-12-20T07:18:09;9.53;;;2.80;;
14377;SDS011;7272;53.668;9.578;2023-12-20T07:21:10;7.97;;;2.70;;
14377;SDS011;7272;53.668;9.578;2023-12-20T07:24:12;11.73;;;3.30;;
14377;SDS011;7272;53.668;9.578;2023-12-20T07:27:13;9.10;;;3.47;;
14377;SDS011;7272;53.668;9.578;2023-12-20T07:30:15;12.47;;;3.93;;
14377;SDS011;7272;53.668;9.578;2023-12-20T07:33:16;6.23;;;2.90;;
14377;SDS011;7272;53.668;9.578;2023-12-20T07:36:19;12.43;;;3.33;;
14377;SDS011;7272;53.668;9.578;2023-12-20T07:39:22;10.33;;;3.23;;
14377;SDS011;7272;53.668;9.578;2023-12-20T07:42:24;9.23;;;2.97;;
14377;SDS011;7272;53.668;9.578;2023-12-20T07:45:25;11.03;;;2.87;;
14377;SDS011;7272;53.668;9.578;2023-12-20T07:48:26;8.13;;;3.17;;
14377;SDS011;7272;53.668;9.578;2023-12-20T07:51:28;6.53;;;3.10;;
14377;SDS011;7272;53.668;9.578;2023-12-20T07:54:29;6.33;;;2.57;;
14377;SDS011;7272;53.668;9.578;2023-12-20T07:57:31;9.63;;;2.87;;
14377;SDS011;7272;53.668;9.578;2023-12-20T08:00:32;7.90;;;2.87;;
14377;SDS011;7272;53.668;9.578;2023-12-20T08:03:33;11.20;;;3.23;;
14377;SDS011;7272;53.668;9.578;2023-12-20T08:06:34;8.63;;;2.90;;
14377;SDS011;7272;53.668;9.578;2023-12-20T08:09:36;10.00;;;2.97;;
14377;SDS011;7272;53.668;9.578;2023-12-20T08:12:37;8.83;;;3.00;;
14377;SDS011;7272;53.668;9.578;2023-12-20T08:15:40;8.43;;;3.00;;
14377;SDS011;7272;53.668;9.578;2023-12-20T08:18:41;12.57;;;3.30;;
14377;SDS011;7272;53.668;9.578;2023-12-20T08:21:42;9.87;;;3.77;;
14377;SDS011;7272;53.668;9.578;2023-12-20T08:24:44;9.83;;;2.90;;
14377;SDS011;7272;53.668;9.578;2023-12-20T08:27:45;10.37;;;3.17;;
14377;SDS011;7272;53.668;9.578;2023-12-20T08:30:46;10.07;;;3.13;;
14377;SDS011;7272;53.668;9.578;2023-12-20T08:33:48;9.93;;;2.87;;
14377;SDS011;7272;53.668;9.578;2023-12-20T08:36:50;5.90;;;2.93;;
14377;SDS011;7272;53.668;9.578;2023-12-20T08:39:52;6.13;;;2.43;;
14377;SDS011;7272;53.668;9.578;2023-12-20T08:42:53;6.83;;;3.07;;
14377;SDS011;7272;53.668;9.578;2023-12-20T08:45:55;10.57;;;3.07;;
14377;SDS011;7272;53.668;9.578;2023-12-20T08:48:56;11.57;;;2.70;;
14377;SDS011;7272;53.668;9.578;2023-12-20T08:51:57;9.03;;;2.80;;
14377;SDS011;7272;53.668;9.578;2023-12-20T08:54:59;10.83;;;2.90;;
14377;SDS011;7272;53.668;9.578;2023-12-20T08:58:00;7.57;;;2.97;;
14377;SDS011;7272;53.668;9.578;2023-12-20T09:01:02;4.23;;;2.37;;
14377;SDS011;7272;53.668;9.578;2023-12-20T09:04:03;3.67;;;1.80;;
14377;SDS011;7272;53.668;9.578;2023-12-20T09:07:06;4.23;;;1.50;;
14377;SDS011;7272;53.668;9.578;2023-12-20T09:10:08;1.10;;;0.93;;
14377;SDS011;7272;53.668;9.578;2023-12-20T09:13:09;2.53;;;1.30;;
14377;SDS011;7272;53.668;9.578;2023-12-20T09:16:11;2.27;;;1.03;;
14377;SDS011;7272;53.668;9.578;2023-12-20T09:19:13;1.33;;;0.83;;
14377;SDS011;7272;53.668;9.578;2023-12-20T09:22:14;1.20;;;1.00;;
14377;SDS011;7272;53.668;9.578;2023-12-20T09:25:16;0.90;;;0.90;;
14377;SDS011;7272;53.668;9.578;2023-12-20T09:28:17;1.10;;;1.00;;
14377;SDS011;7272;53.668;9.578;2023-12-20T09:31:19;1.33;;;0.83;;
14377;SDS011;7272;53.668;9.578;2023-12-20T09:34:20;1.00;;;0.90;;
14377;SDS011;7272;53.668;9.578;2023-12-20T09:37:22;1.23;;;1.00;;
14377;SDS011;7272;53.668;9.578;2023-12-20T09:40:24;0.90;;;0.90;;
14377;SDS011;7272;53.668;9.578;2023-12-20T09:43:27;0.77;;;0.77;;
14377;SDS011;7272;53.668;9.578;2023-12-20T09:46:29;2.37;;;0.97;;
14377;SDS011;7272;53.668;9.578;2023-12-20T09:49:35;2.00;;;1.00;;
14377;SDS011;7272;53.668;9.578;2023-12-20T09:52:38;3.10;;;1.23;;
14377;SDS011;7272;53.668;9.578;2023-12-20T09:55:41;2.87;;;1.13;;
14377;SDS011;7272;53.668;9.578;2023-12-20T09:58:43;2.17;;;1.10;;
14377;SDS011;7272;53.668;9.578;2023-12-20T10:01:44;2.07;;;1.10;;
14377;SDS011;7272;53.668;9.578;2023-12-20T10:04:46;1.27;;;1.17;;
14377;SDS011;7272;53.668;9.578;2023-12-20T10:07:48;2.83;;;1.53;;
14377;SDS011;7272;53.668;9.578;2023-12-20T10:10:50;1.87;;;1.30;;
14377;SDS011;7272;53.668;9.578;2023-12-20T10:13:51;4.23;;;1.20;;
14377;SDS011;7272;53.668;9.578;2023-12-20T10:16:52;1.40;;;1.20;;
14377;SDS011;7272;53.668;9.578;2023-12-20T10:19:55;3.33;;;1.30;;
14377;SDS011;7272;53.668;9.578;2023-12-20T10:22:57;2.40;;;1.20;;
14377;SDS011;7272;53.668;9.578;2023-12-20T10:25:59;2.50;;;1.20;;
14377;SDS011;7272;53.668;9.578;2023-12-20T10:29:01;4.97;;;1.30;;
14377;SDS011;7272;53.668;9.578;2023-12-20T10:32:21;3.03;;;1.40;;
14377;SDS011;7272;53.668;9.578;2023-12-20T10:35:23;2.97;;;1.30;;
14377;SDS011;7272;53.668;9.578;2023-12-20T10:38:25;7.30;;;1.30;;
14377;SDS011;7272;53.668;9.578;2023-12-20T10:41:27;2.67;;;1.57;;
14377;SDS011;7272;53.668;9.578;2023-12-20T10:44:30;8.40;;;1.67;;
14377;SDS011;7272;53.668;9.578;2023-12-20T10:47:31;4.20;;;1.50;;
14377;SDS011;7272;53.668;9.578;2023-12-20T10:50:33;6.90;;;1.97;;
14377;SDS011;7272;53.668;9.578;2023-12-20T10:53:38;3.57;;;1.63;;
14377;SDS011;7272;53.668;9.578;2023-12-20T10:56:41;3.87;;;1.40;;
14377;SDS011;7272;53.668;9.578;2023-12-20T10:59:43;5.13;;;2.13;;
14377;SDS011;7272;53.668;9.578;2023-12-20T11:02:46;2.60;;;1.53;;
14377;SDS011;7272;53.668;9.578;2023-12-20T11:05:53;6.90;;;1.80;;
14377;SDS011;7272;53.668;9.578;2023-12-20T11:09:03;4.30;;;2.13;;
14377;SDS011;7272;53.668;9.578;2023-12-20T11:12:13;7.03;;;2.17;;
14377;SDS011;7272;53.668;9.578;2023-12-20T11:15:17;5.33;;;1.93;;
14377;SDS011;7272;53.668;9.578;2023-12-20T11:18:19;4.00;;;1.80;;
14377;SDS011;7272;53.668;9.578;2023-12-20T11:21:28;5.07;;;1.80;;
14377;SDS011;7272;53.668;9.578;2023-12-20T11:24:30;9.40;;;2.33;;
14377;SDS011;7272;53.668;9.578;2023-12-20T11:27:33;7.20;;;2.00;;
14377;SDS011;7272;53.668;9.578;2023-12-20T11:33:51;6.50;;;2.07;;
14377;SDS011;7272;53.668;9.578;2023-12-20T11:37:17;9.90;;;2.33;;
14377;SDS011;7272;53.668;9.578;2023-12-20T11:40:20;10.87;;;2.73;;
14377;SDS011;7272;53.668;9.578;2023-12-20T11:43:32;7.50;;;2.47;;
14377;SDS011;7272;53.668;9.578;2023-12-20T11:46:36;8.20;;;2.27;;
14377;SDS011;7272;53.668;9.578;2023-12-20T11:49:37;8.03;;;2.50;;
14377;SDS011;7272;53.668;9.578;2023-12-20T11:52:39;7.13;;;2.80;;
14377;SDS011;7272;53.668;9.578;2023-12-20T11:55:40;8.23;;;2.30;;
14377;SDS011;7272;53.668;9.578;2023-12-20T11:58:41;6.60;;;2.60;;
14377;SDS011;7272;53.668;9.578;2023-12-20T12:01:47;9.33;;;2.53;;
14377;SDS011;7272;53.668;9.578;2023-12-20T12:04:49;8.37;;;2.43;;
14377;SDS011;7272;53.668;9.578;2023-12-20T12:07:51;10.67;;;3.87;;
14377;SDS011;7272;53.668;9.578;2023-12-20T12:10:52;10.90;;;2.67;;
14377;SDS011;7272;53.668;9.578;2023-12-20T12:13:54;6.83;;;2.43;;
14377;SDS011;7272;53.668;9.578;2023-12-20T12:16:55;6.20;;;2.17;;
14377;SDS011;7272;53.668;9.578;2023-12-20T12:20:01;8.23;;;2.43;;
14377;SDS011;7272;53.668;9.578;2023-12-20T12:23:04;4.70;;;2.03;;
14377;SDS011;7272;53.668;9.578;2023-12-20T12:26:07;8.33;;;2.70;;
14377;SDS011;7272;53.668;9.578;2023-12-20T12:29:09;5.83;;;2.30;;
14377;SDS011;7272;53.668;9.578;2023-12-20T12:32:11;6.27;;;2.00;;
14377;SDS011;7272;53.668;9.578;2023-12-20T12:35:12;8.97;;;2.30;;
14377;SDS011;7272;53.668;9.578;2023-12-20T12:38:14;9.90;;;3.00;;
14377;SDS011;7272;53.668;9.578;2023-12-20T12:41:16;7.67;;;2.50;;
14377;SDS011;7272;53.668;9.578;2023-12-20T12:44:17;7.50;;;2.70;;
14377;SDS011;7272;53.668;9.578;2023-12-20T12:47:19;10.17;;;2.73;;
14377;SDS011;7272;53.668;9.578;2023-12-20T12:50:20;10.37;;;2.87;;
14377;SDS011;7272;53.668;9.578;2023-12-20T12:53:21;11.17;;;2.60;;
14377;SDS011;7272;53.668;9.578;2023-12-20T12:56:23;6.30;;;2.80;;
14377;SDS011;7272;53.668;9.578;2023-12-20T12:59:25;7.77;;;3.23;;
14377;SDS011;7272;53.668;9.578;2023-12-20T13:02:26;8.03;;;2.67;;
14377;SDS011;7272;53.668;9.578;2023-12-20T13:05:27;14.47;;;2.90;;
14377;SDS011;7272;53.668;9.578;2023-12-20T13:08:29;8.17;;;3.20;;
14377;SDS011;7272;53.668;9.578;2023-12-20T13:11:31;12.53;;;4.40;;
14377;SDS011;7272;53.668;9.578;2023-12-20T13:14:33;11.23;;;4.17;;
14377;SDS011;7272;53.668;9.578;2023-12-20T13:17:37;10.80;;;3.37;;
14377;SDS011;7272;53.668;9.578;2023-12-20T13:20:38;10.73;;;3.13;;
14377;SDS011;7272;53.668;9.578;2023-12-20T13:23:40;8.50;;;3.17;;
14377;SDS011;7272;53.668;9.578;2023-12-20T13:26:41;10.73;;;4.07;;
14377;SDS011;7272;53.668;9.578;2023-12-20T13:29:43;9.97;;;3.87;;
14377;SDS011;7272;53.668;9.578;2023-12-20T13:32:44;17.23;;;4.00;;
14377;SDS011;7272;53.668;9.578;2023-12-20T13:35:45;14.23;;;3.70;;
14377;SDS011;7272;53.668;9.578;2023-12-20T13:38:46;8.27;;;4.43;;
14377;SDS011;7272;53.668;9.578;2023-12-20T13:41:48;10.67;;;3.10;;
14377;SDS011;7272;53.668;9.578;2023-12-20T13:44:50;17.00;;;4.20;;
14377;SDS011;7272;53.668;9.578;2023-12-20T13:47:51;13.20;;;3.67;;
14377;SDS011;7272;53.668;9.578;2023-12-20T13:50:52;13.70;;;3.83;;
14377;SDS011;7272;53.668;9.578;2023-12-20T13:53:54;7.97;;;3.90;;
14377;SDS011;7272;53.668;9.578;2023-12-20T13:56:56;9.57;;;3.53;;
14377;SDS011;7272;53.668;9.578;2023-12-20T13:59:58;10.33;;;3.70;;
14377;SDS011;7272;53.668;9.578;2023-12-20T14:03:00;12.27;;;4.17;;
14377;SDS011;7272;53.668;9.578;2023-12-20T14:06:02;11.60;;;3.00;;
14377;SDS011;7272;53.668;9.578;2023-12-20T14:09:03;7.47;;;3.37;;
14377;SDS011;7272;53.668;9.578;2023-12-20T14:12:05;8.80;;;3.23;;
14377;SDS011;7272;53.668;9.578;2023-12-20T14:15:08;8.93;;;3.10;;
14377;SDS011;7272;53.668;9.578;2023-12-20T14:18:11;8.07;;;3.10;;
14377;SDS011;7272;53.668;9.578;2023-12-20T14:21:15;8.23;;;3.00;;
14377;SDS011;7272;53.668;9.578;2023-12-20T14:24:16;10.03;;;3.27;;
14377;SDS011;7272;53.668;9.578;2023-12-20T14:27:17;10.40;;;2.77;;
14377;SDS011;7272;53.668;9.578;2023-12-20T14:30:22;10.67;;;3.30;;
14377;SDS011;7272;53.668;9.578;2023-12-20T14:33:23;10.63;;;3.10;;
14377;SDS011;7272;53.668;9.578;2023-12-20T14:36:24;11.20;;;3.10;;
14377;SDS011;7272;53.668;9.578;2023-12-20T14:39:25;10.73;;;3.03;;
14377;SDS011;7272;53.668;9.578;2023-12-20T14:42:26;10.13;;;3.20;;
14377;SDS011;7272;53.668;9.578;2023-12-20T14:45:28;8.70;;;2.87;;
14377;SDS011;7272;53.668;9.578;2023-12-20T14:48:29;8.20;;;2.67;;
14377;SDS011;7272;53.668;9.578;2023-12-20T14:51:30;9.37;;;3.03;;
14377;SDS011;7272;53.668;9.578;2023-12-20T14:54:32;11.23;;;2.90;;
14377;SDS011;7272;53.668;9.578;2023-12-20T14:57:33;10.00;;;2.70;;
14377;SDS011;7272;53.668;9.578;2023-12-20T15:00:35;8.40;;;2.47;;
14377;SDS011;7272;53.668;9.578;2023-12-20T15:03:36;6.43;;;2.13;;
14377;SDS011;7272;53.668;9.578;2023-12-20T15:06:38;10.37;;;2.73;;
14377;SDS011;7272;53.668;9.578;2023-12-20T15:09:39;9.80;;;3.00;;
14377;SDS011;7272;53.668;9.578;2023-12-20T15:12:45;10.37;;;3.50;;
14377;SDS011;7272;53.668;9.578;2023-12-20T15:15:47;12.10;;;4.07;;
14377;SDS011;7272;53.668;9.578;2023-12-20T15:18:49;10.93;;;3.03;;
14377;SDS011;7272;53.668;9.578;2023-12-20T15:21:50;8.90;;;3.30;;
14377;SDS011;7272;53.668;9.578;2023-12-20T15:24:52;8.73;;;2.83;;
14377;SDS011;7272;53.668;9.578;2023-12-20T15:27:54;9.60;;;2.57;;
14377;SDS011;7272;53.668;9.578;2023-12-20T15:30:56;9.37;;;3.00;;
14377;SDS011;7272;53.668;9.578;2023-12-20T15:33:58;8.80;;;2.33;;
14377;SDS011;7272;53.668;9.578;2023-12-20T15:36:59;9.83;;;2.60;;
14377;SDS011;7272;53.668;9.578;2023-12-20T15:40:01;8.87;;;2.80;;
14377;SDS011;7272;53.668;9.578;2023-12-20T15:43:02;7.67;;;2.47;;
14377;SDS011;7272;53.668;9.578;2023-12-20T15:46:04;9.17;;;2.67;;
14377;SDS011;7272;53.668;9.578;2023-12-20T15:49:05;9.17;;;2.33;;
14377;SDS011;7272;53.668;9.578;2023-12-20T15:52:06;8.80;;;2.20;;
14377;SDS011;7272;53.668;9.578;2023-12-20T15:55:08;11.53;;;3.20;;
14377;SDS011;7272;53.668;9.578;2023-12-20T15:58:09;9.97;;;3.00;;
14377;SDS011;7272;53.668;9.578;2023-12-20T16:01:11;8.00;;;2.83;;
14377;SDS011;7272;53.668;9.578;2023-12-20T16:04:12;8.73;;;2.53;;
14377;SDS011;7272;53.668;9.578;2023-12-20T16:07:13;9.93;;;3.97;;
14377;SDS011;7272;53.668;9.578;2023-12-20T16:10:15;10.00;;;2.63;;
14377;SDS011;7272;53.668;9.578;2023-12-20T16:13:16;7.23;;;3.57;;
14377;SDS011;7272;53.668;9.578;2023-12-20T16:16:18;8.80;;;2.80;;
14377;SDS011;7272;53.668;9.578;2023-12-20T16:19:19;5.70;;;2.67;;
14377;SDS011;7272;53.668;9.578;2023-12-20T16:22:20;3.07;;;1.60;;
14377;SDS011;7272;53.668;9.578;2023-12-20T16:25:21;6.30;;;1.90;;
14377;SDS011;7272;53.668;9.578;2023-12-20T16:28:23;4.13;;;1.50;;
14377;SDS011;7272;53.668;9.578;2023-12-20T16:31:25;4.27;;;2.00;;
14377;SDS011;7272;53.668;9.578;2023-12-20T16:34:26;7.43;;;1.90;;
14377;SDS011;7272;53.668;9.578;2023-12-20T16:37:27;9.00;;;2.10;;
14377;SDS011;7272;53.668;9.578;2023-12-20T16:40:29;5.63;;;2.20;;
14377;SDS011;7272;53.668;9.578;2023-12-20T16:43:30;13.80;;;3.40;;
14377;SDS011;7272;53.668;9.578;2023-12-20T16:46:32;11.37;;;3.63;;
14377;SDS011;7272;53.668;9.578;2023-12-20T16:49:33;11.00;;;3.47;;
14377;SDS011;7272;53.668;9.578;2023-12-20T16:52:34;8.30;;;2.87;;
14377;SDS011;7272;53.668;9.578;2023-12-20T16:55:35;9.60;;;2.73;;
14377;SDS011;7272;53.668;9.578;2023-12-20T16:58:37;7.73;;;2.43;;
14377;SDS011;7272;53.668;9.578;2023-12-20T17:01:39;8.93;;;2.50;;
14377;SDS011;7272;53.668;9.578;2023-12-20T17:04:43;8.27;;;2.33;;
14377;SDS011;7272;53.668;9.578;2023-12-20T17:07:44;5.87;;;2.30;;
14377;SDS011;7272;53.668;9.578;2023-12-20T17:10:46;7.97;;;3.03;;
14377;SDS011;7272;53.668;9.578;2023-12-20T17:13:47;8.63;;;2.60;;
14377;SDS011;7272;53.668;9.578;2023-12-20T17:16:49;6.93;;;2.90;;
14377;SDS011;7272;53.668;9.578;2023-12-20T17:19:51;7.10;;;3.03;;
14377;SDS011;7272;53.668;9.578;2023-12-20T17:22:52;7.63;;;2.50;;
14377;SDS011;7272;53.668;9.578;2023-12-20T17:25:53;7.63;;;2.63;;
14377;SDS011;7272;53.668;9.578;2023-12-20T17:28:54;8.90;;;2.30;;
14377;SDS011;7272;53.668;9.578;2023-12-20T17:31:56;6.47;;;2.47;;
14377;SDS011;7272;53.668;9.578;2023-12-20T17:34:57;7.07;;;2.50;;
14377;SDS011;7272;53.668;9.578;2023-12-20T17:37:59;5.50;;;2.83;;
14377;SDS011;7272;53.668;9.578;2023-12-20T17:41:00;14.30;;;4.33;;
14377;SDS011;7272;53.668;9.578;2023-12-20T17:44:01;12.70;;;6.53;;
14377;SDS011;7272;53.668;9.578;2023-12-20T17:47:03;11.47;;;5.73;;
14377;SDS011;7272;53.668;9.578;2023-12-20T17:50:05;10.23;;;3.70;;
14377;SDS011;7272;53.668;9.578;2023-12-20T17:53:06;10.23;;;4.77;;
14377;SDS011;7272;53.668;9.578;2023-12-20T17:56:08;7.17;;;3.20;;
14377;SDS011;7272;53.668;9.578;2023-12-20T17:59:09;6.73;;;2.57;;
14377;SDS011;7272;53.668;9.578;2023-12-20T18:02:11;7.57;;;2.80;;
14377;SDS011;7272;53.668;9.578;2023-12-20T18:05:12;6.37;;;2.77;;
14377;SDS011;7272;53.668;9.578;2023-12-20T18:08:13;6.17;;;2.80;;
14377;SDS011;7272;53.668;9.578;2023-12-20T18:11:15;7.77;;;2.30;;
14377;SDS011;7272;53.668;9.578;2023-12-20T18:14:16;8.93;;;2.40;;
14377;SDS011;7272;53.668;9.578;2023-12-20T18:17:18;6.40;;;2.47;;
14377;SDS011;7272;53.668;9.578;2023-12-20T18:20:20;9.53;;;2.20;;
14377;SDS011;7272;53.668;9.578;2023-12-20T18:23:21;6.47;;;2.20;;
14377;SDS011;7272;53.668;9.578;2023-12-20T18:26:22;6.50;;;1.90;;
14377;SDS011;7272;53.668;9.578;2023-12-20T18:29:23;7.13;;;2.07;;
14377;SDS011;7272;53.668;9.578;2023-12-20T18:32:25;8.07;;;2.10;;